KUCY/UCY METAR and TAF weather

Enter ICAO airport designator
Station Type Date Time Source
KUCY METAR 2020/08/10 18:10 UTC NOAA

KUCY 101810Z AUTO 25009KT 210V270 9SM CLR 33/24 A3002 RMK A01


Station Type Date Time Source
KUCY Decoded METAR 2020/08/10 18:10 UTC NOAA

Station name not available
Aug 10, 2020 - 02:10 PM EDT / 2020.08.10 1810 UTC
Wind: from the WSW (250 degrees) at 10 MPH (9 KT) (direction variable):0
Visibility: 9 mile(s):0
Sky conditions: clear
Temperature: 91 F (33 C)
Heat index: 101.5 F (38.6 C):1
Dew Point: 75 F (24 C)
Relative Humidity: 59%
Pressure (altimeter): 30.02 in. Hg (1016 hPa)
ob: KUCY 101810Z AUTO 25009KT 210V270 9SM CLR 33/24 A3002 RMK A01
cycle: 18

Station Type Date Time Source
KUCY TAF UTC NOAA

Error!

Example: see airport list